Date,TemperatureHighF,TemperatureAvgF,TemperatureLowF,DewpointHighF,DewpointAvgF,DewpointLowF,HumidityHigh,HumidityAvg,HumidityLow,PressureMaxIn,PressureMinIn,WindSpeedMaxMPH,WindSpeedAvgMPH,GustSpeedMaxMPH,PrecipitationSumIn
2013-7-1,81,73,69,74,71,68,98,93,80,30.07,29.92,5,1,12,0.00
2013-7-2,76,67,59,75,66,58,99,97,90,30.22,30.06,4,1,7,0.00
2013-7-3,87,72,59,76,68,58,98,87,67,30.22,30.09,6,1,12,0.00
2013-7-4,92,83,73,78,74,71,96,77,57,30.18,30.05,8,1,17,0.00
2013-7-5,93,84,75,78,75,73,93,76,57,30.13,29.99,10,1,17,0.00
2013-7-6,90,82,74,76,73,71,94,76,57,30.05,29.95,5,1,12,0.00
2013-7-7,91,79,66,75,70,64,96,75,52,30.00,29.89,6,0,11,0.00
2013-7-8,79,73,66,75,69,63,96,89,78,30.07,29.89,5,1,15,0.00
2013-7-9,71,67,64,67,64,62,96,90,81,30.11,30.05,6,1,11,0.00
2013-7-10,79,68,63,74,65,-100,98,93,84,30.09,29.78,9,1,14,0.00
2013-7-11,83,75,71,76,73,69,98,93,74,29.93,29.75,4,0,9,0.00
2013-7-12,78,70,63,70,63,58,97,79,55,30.20,29.93,9,1,15,0.00
2013-7-13,79,70,63,67,63,59,93,79,57,30.32,30.20,9,1,13,0.00
2013-7-14,88,76,66,76,71,64,98,85,63,30.30,30.19,6,1,12,0.00
2013-7-15,89,78,68,78,72,67,98,83,59,30.19,30.07,7,1,12,0.00
2013-7-16,95,78,66,75,70,65,98,79,48,30.16,30.09,6,1,10,0.00
2013-7-17,93,80,67,77,72,66,98,79,52,30.16,29.94,6,1,13,0.00
2013-7-18,89,78,72,75,72,70,96,83,58,30.00,29.92,12,2,18,0.00
2013-7-19,96,82,70,79,74,69,98,79,51,29.92,29.67,7,2,20,0.00
2013-7-20,91,83,73,78,70,-100,83,67,54,29.78,29.62,5,1,18,0.00
2013-7-21,76,71,65,67,64,59,96,81,59,29.99,29.78,11,2,17,0.00
2013-7-22,79,70,66,71,67,64,96,91,74,30.03,29.90,6,1,11,0.00
2013-7-23,73,69,67,72,68,66,98,96,92,29.90,29.54,2,0,5,0.00
2013-7-24,85,74,65,73,67,56,99,80,58,29.95,29.57,6,1,15,0.00
2013-7-25,65,62,60,59,55,51,96,79,69,30.11,29.96,2,0,9,0.00
2013-7-26,72,66,61,67,63,60,97,93,79,30.07,29.91,4,1,16,0.00
2013-7-27,83,72,60,70,64,58,95,78,50,30.03,29.96,7,1,13,0.00
2013-7-28,73,68,64,69,66,62,96,92,86,30.02,29.98,1,0,10,0.00
2013-7-29,77,69,65,72,67,64,98,92,83,30.03,29.95,12,2,16,0.00
2013-7-30,81,71,60,67,62,58,97,75,47,30.08,30.01,6,1,13,0.00
2013-7-31,80,69,57,64,61,56,97,78,51,30.12,30.03,10,1,15,0.00